Aviation Digital Data Service (ADDS)

Output produced by METARs form (0747 UTC 23 April 2018)
found at http://www.aviationweather.gov/adds/metars/
 
TAF TXKF 230535Z 2306/2406 05010KT 9999 VCSH FEW030 OVC060 
     PROB40 
     TEMPO 2306/2309 9000 -SHRA BKN020 OVC060 
     BECMG 2307/2309 NSW 
     BECMG 2312/2315 04015KT 9999 VCSH SCT015 BKN025 
     PROB40 
     TEMPO 2315/2321 9000 -SHRA BKN015 
     BECMG 2320/2322 05015KT 9999 NSW FEW015 SCT025